Terminal Aerodrome Forecast
Issued by NWS

Home | Current Version | Previous Version | Text Only | Print | Product List | Glossary On
Versions: 1 2 3 4 5 6 7 8 9 10 11 12 13 14 15 16 17 18 19 20 21 22 23 24 25 26 27 28
000
FTUS45 KPSR 232110 AAB
TAFPHX
TAF AMD
KPHX 232110Z 2321/2418 27008KT P6SM VCSH SCT040 BKN060
      TEMPO 2321/2322 27008G18KT -SHRA BKN040
     FM232300 25015KT P6SM BKN070
     FM240200 26012KT P6SM VCSH SCT040 BKN070
      TEMPO 2402/2406 -SHRA BKN050 OVC070
     FM240700 26010KT P6SM SCT050 BKN100=

USA.gov is the U.S. government's official web portal to all federal, state and local government web resources and services.